Time;durP1;ratioP1;P1;durP2;ratioP2;P2;SDS_P1;SDS_P2;PMS_P1;PMS_P2;Temp;Humidity;BMP_temperature;BMP_pressure;BME280_temperature;BME280_humidity;BME280_pressure;Samples;Min_cycle;Max_cycle;Signal;HPM_P1;HPM_P2
2023/05/22 00:01:18;;;;;;;0.63;0.63;;;14.40;99.90;;;;;;5133395;27;20027;-71
2023/05/22 00:03:44;;;;;;;0.28;0.28;;;14.30;99.90;;;;;;5134057;27;20353;-71
2023/05/22 00:06:10;;;;;;;3.67;1.63;;;14.30;99.90;;;;;;5133931;27;20023;-71
2023/05/22 00:08:37;;;;;;;1.10;1.00;;;14.20;99.90;;;;;;5133869;27;20019;-70
2023/05/22 00:11:03;;;;;;;0.10;0.10;;;14.20;99.90;;;;;;5133985;27;20115;-69
2023/05/22 00:13:28;;;;;;;0.10;0.10;;;14.20;99.90;;;;;;5133847;27;20032;-71
2023/05/22 00:15:55;;;;;;;0.20;0.20;;;14.50;99.90;;;;;;5133431;27;20023;-70
2023/05/22 00:18:20;;;;;;;0.60;0.60;;;14.40;99.90;;;;;;5133777;27;20110;-70
2023/05/22 00:20:47;;;;;;;4.35;3.67;;;14.40;99.90;;;;;;5133718;27;20039;-71
2023/05/22 00:23:13;;;;;;;0.95;0.95;;;14.20;99.90;;;;;;5115522;28;20043;-70
2023/05/22 00:25:39;;;;;;;0.10;0.10;;;14.20;99.90;;;;;;5133562;28;20034;-71
2023/05/22 00:28:05;;;;;;;4.68;3.85;;;14.30;99.90;;;;;;5115556;28;20110;-71
2023/05/22 00:30:32;;;;;;;1.25;1.15;;;14.40;99.90;;;;;;5133156;28;20119;-74
2023/05/22 00:32:58;;;;;;;0.00;0.00;;;14.20;99.90;;;;;;5108133;28;20019;-71
2023/05/22 00:35:24;;;;;;;3.42;2.85;;;14.40;99.90;;;;;;5126509;28;20041;-71
2023/05/22 00:37:49;;;;;;;0.68;0.68;;;14.30;99.90;;;;;;5133511;28;20425;-74
2023/05/22 00:40:15;;;;;;;2.58;1.98;;;14.50;99.90;;;;;;5133394;28;20024;-72
2023/05/22 00:42:44;;;;;;;0.32;0.32;;;14.50;99.90;;;;;;5115083;28;20023;-70
2023/05/22 00:45:13;;;;;;;0.50;0.50;;;14.40;99.90;;;;;;5133302;28;20035;-74
2023/05/22 00:47:40;;;;;;;0.28;0.28;;;14.20;99.90;;;;;;5114866;28;20024;-72
2023/05/22 00:50:08;;;;;;;0.30;0.30;;;14.10;99.90;;;;;;5115130;28;20070;-71
2023/05/22 00:52:39;;;;;;;5.00;4.43;;;13.90;99.90;;;;;;5114974;28;20122;-71
2023/05/22 00:55:05;;;;;;;1.33;1.25;;;13.90;99.90;;;;;;5097387;28;20110;-70
2023/05/22 00:57:32;;;;;;;0.10;0.10;;;13.80;99.90;;;;;;5096944;28;20024;-71
2023/05/22 01:00:00;;;;;;;1.48;1.38;;;13.80;99.90;;;;;;5098526;28;20058;-73
2023/05/22 01:02:27;;;;;;;4.80;1.17;;;13.90;99.90;;;;;;5116771;28;20034;-70
2023/05/22 01:04:56;;;;;;;9.30;3.17;;;13.90;99.90;;;;;;5098981;28;20103;-73
2023/05/22 01:07:22;;;;;;;2.53;2.22;;;13.80;99.90;;;;;;5117010;28;20035;-72
2023/05/22 01:09:49;;;;;;;1.45;1.08;;;13.90;99.90;;;;;;5116633;28;20038;-70
2023/05/22 01:12:41;;;;;;;2.55;2.35;;;13.90;99.90;;;;;;5116097;28;20028;-71
2023/05/22 01:15:25;;;;;;;0.80;0.40;;;13.90;99.90;;;;;;5116836;28;20038;-71
2023/05/22 01:18:18;;;;;;;5.65;2.42;;;13.70;99.90;;;;;;5098060;28;20041;-73
2023/05/22 01:21:02;;;;;;;0.38;0.38;;;13.80;99.90;;;;;;5116495;28;20035;-72
2023/05/22 01:24:01;;;;;;;1.38;0.90;;;13.70;99.90;;;;;;5116103;28;20024;-71
2023/05/22 01:26:26;;;;;;;19.60;2.95;;;13.80;99.90;;;;;;5092002;28;20043;-71
2023/05/22 01:29:11;;;;;;;12.80;6.18;;;13.80;99.90;;;;;;5116235;28;20023;-71
2023/05/22 01:31:42;;;;;;;6.90;3.33;;;13.70;99.90;;;;;;5097919;28;20040;-74
2023/05/22 01:34:13;;;;;;;2.35;2.15;;;13.80;99.90;;;;;;5098390;28;20080;-71
2023/05/22 01:36:40;;;;;;;2.45;1.83;;;13.70;99.90;;;;;;5097989;28;20053;-70
2023/05/22 01:39:07;;;;;;;1.30;1.20;;;13.80;99.90;;;;;;5116289;28;20020;-70
2023/05/22 01:41:33;;;;;;;2.35;1.73;;;13.70;99.90;;;;;;5097668;28;20460;-72
2023/05/22 01:44:00;;;;;;;0.32;0.32;;;13.70;99.90;;;;;;5097775;28;20024;-71
2023/05/22 01:46:29;;;;;;;1.92;1.80;;;13.80;99.90;;;;;;5116187;28;20023;-71
2023/05/22 01:48:55;;;;;;;2.00;1.85;;;13.80;99.90;;;;;;5097564;28;20073;-70
2023/05/22 01:51:49;;;;;;;2.83;2.28;;;13.80;99.90;;;;;;5116141;28;20039;-72
2023/05/22 01:54:23;;;;;;;2.53;2.33;;;13.70;99.90;;;;;;5097794;28;20387;-71
2023/05/22 01:56:54;;;;;;;1.52;1.42;;;13.90;99.90;;;;;;5116010;28;20353;-74
2023/05/22 01:59:31;;;;;;;1.65;1.55;;;13.80;99.90;;;;;;5097698;28;20028;-70
2023/05/22 02:02:02;;;;;;;1.15;1.13;;;13.70;99.90;;;;;;5116193;28;20364;-71
2023/05/22 02:04:30;;;;;;;1.30;1.20;;;13.70;99.90;;;;;;5080437;28;20020;-70
2023/05/22 02:06:58;;;;;;;3.45;2.60;;;13.70;99.90;;;;;;5097667;28;20281;-70
2023/05/22 02:09:28;;;;;;;1.17;1.10;;;13.60;99.90;;;;;;5096045;28;20032;-71
2023/05/22 02:11:54;;;;;;;1.17;0.85;;;13.70;99.90;;;;;;5115308;28;20034;-72
2023/05/22 02:14:21;;;;;;;7.05;1.95;;;13.80;99.90;;;;;;5097198;28;20035;-70
2023/05/22 02:16:47;;;;;;;1.23;0.98;;;13.90;99.90;;;;;;5080464;28;20080;-70
2023/05/22 02:19:14;;;;;;;2.25;1.10;;;14.10;99.90;;;;;;5097127;28;20058;-74
2023/05/22 02:21:40;;;;;;;4.18;3.00;;;14.00;99.90;;;;;;5097093;28;20020;-75
2023/05/22 02:24:05;;;;;;;2.13;1.73;;;13.90;99.90;;;;;;5097288;28;20028;-71
2023/05/22 02:26:31;;;;;;;5.63;5.15;;;13.90;99.90;;;;;;5096785;28;20041;-75
2023/05/22 02:28:58;;;;;;;3.03;1.83;;;13.80;99.90;;;;;;5096960;28;20493;-70
2023/05/22 02:31:25;;;;;;;8.35;2.95;;;13.70;99.90;;;;;;5115302;28;20118;-72
2023/05/22 02:33:50;;;;;;;2.90;1.38;;;13.80;99.90;;;;;;5096617;28;20499;-71
2023/05/22 02:36:16;;;;;;;8.88;3.83;;;13.80;99.90;;;;;;5115552;28;20031;-70
2023/05/22 02:38:46;;;;;;;2.13;2.03;;;13.90;99.90;;;;;;5096768;28;20019;-71
2023/05/22 02:41:12;;;;;;;0.85;0.85;;;13.80;99.90;;;;;;5096698;28;20434;-72
2023/05/22 02:43:38;;;;;;;2.47;2.25;;;13.70;99.90;;;;;;5114833;28;20093;-74
2023/05/22 02:46:04;;;;;;;11.70;3.90;;;13.70;99.90;;;;;;5096857;28;20467;-71
2023/05/22 02:48:29;;;;;;;19.67;5.13;;;13.70;99.90;;;;;;5096491;28;20504;-71
2023/05/22 02:50:55;;;;;;;6.05;3.95;;;13.70;99.90;;;;;;5096513;28;20123;-70
2023/05/22 02:53:21;;;;;;;4.00;2.53;;;13.70;99.90;;;;;;5114842;28;20402;-71
2023/05/22 02:55:47;;;;;;;3.53;2.17;;;13.70;99.90;;;;;;5095833;28;20028;-70
2023/05/22 02:58:13;;;;;;;1.70;1.00;;;13.80;99.90;;;;;;5114909;28;20036;-72
2023/05/22 03:00:39;;;;;;;4.13;2.83;;;13.70;99.90;;;;;;5096231;28;20060;-70
2023/05/22 03:03:05;;;;;;;2.50;2.20;;;13.70;99.90;;;;;;5096426;28;20020;-71
2023/05/22 03:05:32;;;;;;;0.00;0.00;;;13.70;99.90;;;;;;5114429;28;20392;-70
2023/05/22 03:07:58;;;;;;;9.25;4.60;;;13.70;99.90;;;;;;5114690;28;20054;-70
2023/05/22 03:10:24;;;;;;;2.15;1.42;;;13.80;99.90;;;;;;5114144;28;20078;-70
2023/05/22 03:12:53;;;;;;;8.52;2.78;;;13.70;99.90;;;;;;5114279;28;20521;-70
2023/05/22 03:15:19;;;;;;;6.45;3.80;;;13.70;99.90;;;;;;5096396;28;20016;-70
2023/05/22 03:17:46;;;;;;;6.63;5.10;;;13.60;99.90;;;;;;5096108;28;20019;-70
2023/05/22 03:20:15;;;;;;;5.60;3.70;;;13.50;99.90;;;;;;5095652;28;20118;-70
2023/05/22 03:22:47;;;;;;;3.17;2.38;;;13.50;99.90;;;;;;5095648;28;20027;-70
2023/05/22 03:25:13;;;;;;;3.35;2.83;;;13.50;99.90;;;;;;5095842;28;20391;-72
2023/05/22 03:27:39;;;;;;;4.35;4.03;;;13.50;99.90;;;;;;5095747;28;20106;-70
2023/05/22 03:30:07;;;;;;;5.55;5.10;;;13.40;99.90;;;;;;5095496;28;20290;-73
2023/05/22 03:32:36;;;;;;;9.85;4.30;;;13.50;99.90;;;;;;5096550;28;20038;-70
2023/05/22 03:35:03;;;;;;;3.90;1.17;;;13.50;99.90;;;;;;5095539;28;20080;-70
2023/05/22 03:37:29;;;;;;;3.20;2.22;;;13.50;99.90;;;;;;5095771;28;20027;-70
2023/05/22 03:39:55;;;;;;;7.65;3.80;;;13.50;99.90;;;;;;5095235;28;20045;-71
2023/05/22 03:42:25;;;;;;;4.68;2.33;;;13.50;99.90;;;;;;5095644;28;20499;-75
2023/05/22 03:44:51;;;;;;;9.98;5.28;;;13.50;99.90;;;;;;5095060;28;20019;-75
2023/05/22 03:47:18;;;;;;;4.82;4.18;;;13.70;99.90;;;;;;5095639;28;20024;-74
2023/05/22 03:49:45;;;;;;;12.75;7.20;;;13.40;99.90;;;;;;5113629;28;20110;-74
2023/05/22 03:52:10;;;;;;;0.10;0.10;;;13.30;99.90;;;;;;5094938;28;20399;-75
2023/05/22 03:54:36;;;;;;;0.30;0.30;;;13.50;99.90;;;;;;5113602;28;20035;-73
2023/05/22 03:57:03;;;;;;;0.68;0.68;;;13.60;99.90;;;;;;5094935;28;20487;-75
2023/05/22 03:59:29;;;;;;;11.07;5.55;;;13.70;99.90;;;;;;5095240;28;20027;-74
2023/05/22 04:01:56;;;;;;;4.45;1.25;;;13.70;99.90;;;;;;5113080;28;20027;-73
2023/05/22 04:04:25;;;;;;;2.33;1.20;;;13.60;99.90;;;;;;5113075;28;20020;-76
2023/05/22 04:06:51;;;;;;;2.13;1.98;;;13.60;99.90;;;;;;5112460;28;20026;-75
2023/05/22 04:09:17;;;;;;;1.63;1.38;;;13.60;99.90;;;;;;5094453;28;20028;-75
2023/05/22 04:11:45;;;;;;;35.35;5.60;;;13.80;99.90;;;;;;5113163;28;20042;-73
2023/05/22 04:14:11;;;;;;;2.97;1.95;;;13.50;99.90;;;;;;5112994;28;20031;-75
2023/05/22 04:16:36;;;;;;;5.05;1.83;;;13.50;99.90;;;;;;5094831;28;20032;-73
2023/05/22 04:19:02;;;;;;;4.32;2.40;;;13.50;99.90;;;;;;5094983;28;20051;-74
2023/05/22 04:21:32;;;;;;;7.05;2.70;;;13.60;99.90;;;;;;5094409;28;20031;-73
2023/05/22 04:24:00;;;;;;;8.45;3.67;;;13.50;99.90;;;;;;5113039;28;20031;-75
2023/05/22 04:26:28;;;;;;;8.15;5.53;;;13.40;99.90;;;;;;5113469;28;20019;-70
2023/05/22 04:28:54;;;;;;;1.63;0.85;;;13.30;99.90;;;;;;5095143;28;20028;-71
2023/05/22 04:31:21;;;;;;;3.08;2.83;;;13.50;99.90;;;;;;5113788;28;20025;-71
2023/05/22 04:33:48;;;;;;;2.40;2.30;;;13.60;99.90;;;;;;5099015;28;20479;-71
2023/05/22 04:36:16;;;;;;;6.97;2.22;;;13.60;99.90;;;;;;5116817;28;20047;-71
2023/05/22 04:38:43;;;;;;;4.47;3.25;;;13.60;99.90;;;;;;5099069;28;20073;-70
2023/05/22 04:41:16;;;;;;;6.43;3.05;;;13.50;99.90;;;;;;5098541;28;20031;-70
2023/05/22 04:43:43;;;;;;;3.95;2.58;;;13.50;99.90;;;;;;5117087;28;20499;-71
2023/05/22 04:46:09;;;;;;;2.20;2.05;;;13.50;99.90;;;;;;5117143;28;20032;-71
2023/05/22 04:48:35;;;;;;;1.20;1.20;;;13.70;99.90;;;;;;5117060;28;20410;-70
2023/05/22 04:51:03;;;;;;;10.15;3.65;;;13.80;99.90;;;;;;5098394;28;20522;-70
2023/05/22 04:53:29;;;;;;;9.10;4.93;;;14.00;99.90;;;;;;5098763;28;20403;-71
2023/05/22 04:55:58;;;;;;;0.82;0.82;;;14.00;99.90;;;;;;5098684;28;20031;-70
2023/05/22 04:58:26;;;;;;;2.92;2.55;;;14.00;99.90;;;;;;5098691;28;20023;-70
2023/05/22 05:00:53;;;;;;;1.00;1.00;;;13.80;99.90;;;;;;5098674;28;20037;-70
2023/05/22 05:03:21;;;;;;;0.20;0.20;;;13.90;99.90;;;;;;5098470;28;20042;-70
2023/05/22 05:05:47;;;;;;;8.52;5.07;;;14.10;99.90;;;;;;5098224;28;20076;-70
2023/05/22 05:08:13;;;;;;;0.10;0.10;;;13.90;99.90;;;;;;5098349;28;20110;-71
2023/05/22 05:10:39;;;;;;;4.35;1.55;;;14.00;99.90;;;;;;5098304;28;20027;-71
2023/05/22 05:13:05;;;;;;;3.25;2.92;;;13.90;99.90;;;;;;5098263;28;20023;-71
2023/05/22 05:15:36;;;;;;;2.08;1.48;;;14.00;99.90;;;;;;5098441;28;20059;-74
2023/05/22 05:18:02;;;;;;;10.63;3.90;;;13.90;99.90;;;;;;5098079;28;20100;-75
2023/05/22 05:20:29;;;;;;;9.98;5.07;;;13.80;99.90;;;;;;5116545;28;20100;-75
2023/05/22 05:22:55;;;;;;;10.13;4.63;;;13.80;99.90;;;;;;5098086;28;20502;-75
2023/05/22 05:25:21;;;;;;;12.60;2.63;;;13.70;99.90;;;;;;5116540;28;20059;-74
2023/05/22 05:27:47;;;;;;;5.10;2.50;;;13.60;99.90;;;;;;5097885;28;20023;-75
2023/05/22 05:30:14;;;;;;;1.95;1.77;;;13.50;99.90;;;;;;5098193;28;20047;-75
2023/05/22 05:32:54;;;;;;;0.55;0.55;;;13.60;99.90;;;;;;5097531;28;20395;-69
2023/05/22 05:35:30;;;;;;;8.00;4.55;;;13.80;99.90;;;;;;5098054;28;20046;-75
2023/05/22 05:38:02;;;;;;;10.52;4.03;;;13.80;99.90;;;;;;5097819;28;20111;-74
2023/05/22 05:40:30;;;;;;;6.93;2.13;;;13.90;99.90;;;;;;5097871;28;20028;-75
2023/05/22 05:42:55;;;;;;;4.55;2.45;;;14.00;99.90;;;;;;5115388;28;20425;-74
2023/05/22 05:45:25;;;;;;;0.82;0.82;;;14.00;99.90;;;;;;5097805;28;20375;-75
2023/05/22 05:47:51;;;;;;;1.02;0.98;;;13.90;99.90;;;;;;5097313;28;20042;-74
2023/05/22 05:50:17;;;;;;;18.83;7.22;;;14.00;99.90;;;;;;5097471;28;20107;-75
2023/05/22 05:52:43;;;;;;;1.83;1.73;;;14.00;99.90;;;;;;5097533;28;20028;-74
2023/05/22 05:55:15;;;;;;;0.17;0.17;;;13.70;99.90;;;;;;5097523;28;20053;-76
2023/05/22 05:57:41;;;;;;;0.20;0.20;;;14.00;99.90;;;;;;5097465;28;20031;-75
2023/05/22 06:00:12;;;;;;;0.93;0.93;;;14.30;99.90;;;;;;5097354;28;20031;-75
2023/05/22 06:02:41;;;;;;;5.85;3.55;;;14.40;99.90;;;;;;5115679;28;20036;-74
2023/05/22 06:05:18;;;;;;;36.28;4.75;;;14.10;99.90;;;;;;5097616;28;20023;-75
2023/05/22 06:07:44;;;;;;;4.18;3.03;;;13.90;99.90;;;;;;5097168;28;20028;-75
2023/05/22 06:10:11;;;;;;;3.08;2.78;;;14.00;99.90;;;;;;5096988;28;20035;-75
2023/05/22 06:12:57;;;;;;;4.47;4.10;;;14.10;99.90;;;;;;5096924;28;20016;-76
2023/05/22 06:15:23;;;;;;;4.15;3.35;;;14.10;99.90;;;;;;5097301;28;20028;-73
2023/05/22 06:17:49;;;;;;;4.80;4.38;;;14.00;99.90;;;;;;5096756;28;20530;-72
2023/05/22 06:20:15;;;;;;;19.70;6.18;;;13.90;99.90;;;;;;5096971;28;20019;-75
2023/05/22 06:22:41;;;;;;;27.27;6.85;;;13.90;99.90;;;;;;5096882;28;20123;-72
2023/05/22 06:25:09;;;;;;;3.10;1.98;;;13.90;99.90;;;;;;5096820;28;20464;-74
2023/05/22 06:27:35;;;;;;;9.45;5.80;;;14.00;99.90;;;;;;5096972;28;20030;-76
2023/05/22 06:30:02;;;;;;;33.28;9.70;;;14.00;99.90;;;;;;5096845;28;20032;-75
2023/05/22 06:32:32;;;;;;;5.10;4.33;;;14.00;99.90;;;;;;5096809;28;20365;-75
2023/05/22 06:34:58;;;;;;;25.88;7.85;;;13.90;99.90;;;;;;5096433;28;20088;-76
2023/05/22 06:37:25;;;;;;;7.80;5.55;;;14.00;99.90;;;;;;5096899;28;20028;-76
2023/05/22 06:39:52;;;;;;;13.98;4.65;;;14.00;99.90;;;;;;5096142;28;20111;-75
2023/05/22 06:42:32;;;;;;;16.23;6.45;;;14.20;99.90;;;;;;5097314;28;20384;-76
2023/05/22 06:45:18;;;;;;;23.80;7.03;;;14.30;99.90;;;;;;5113462;28;20036;-75
2023/05/22 06:48:03;;;;;;;6.72;3.72;;;14.30;99.90;;;;;;5114848;28;20042;-76
2023/05/22 06:50:31;;;;;;;6.65;5.10;;;14.20;99.90;;;;;;5096317;28;20041;-75
2023/05/22 06:52:57;;;;;;;11.98;3.60;;;14.20;99.90;;;;;;5096564;28;20043;-74
2023/05/22 06:55:23;;;;;;;14.15;6.72;;;14.20;99.90;;;;;;5095272;28;20020;-75
2023/05/22 06:58:02;;;;;;;17.20;5.78;;;14.30;99.90;;;;;;5096386;28;20015;-75
2023/05/22 07:00:28;;;;;;;28.70;7.05;;;14.30;99.90;;;;;;5095822;28;20043;-75
2023/05/22 07:03:12;;;;;;;0.80;0.80;;;14.40;99.90;;;;;;5099199;28;20028;-75
2023/05/22 07:05:58;;;;;;;8.05;3.28;;;14.30;99.90;;;;;;5095946;28;20027;-75
2023/05/22 07:08:25;;;;;;;21.58;10.23;;;14.10;99.90;;;;;;5096206;28;20023;-76
2023/05/22 07:10:50;;;;;;;18.30;7.95;;;14.10;99.90;;;;;;5095660;28;20031;-75
2023/05/22 07:13:16;;;;;;;5.90;4.32;;;14.10;99.90;;;;;;5096231;28;20590;-75
2023/05/22 07:15:43;;;;;;;12.68;5.82;;;14.00;99.90;;;;;;5095579;28;20020;-74
2023/05/22 07:18:09;;;;;;;1.45;1.35;;;14.20;99.90;;;;;;5096834;28;20361;-77
2023/05/22 07:20:37;;;;;;;9.88;6.30;;;14.30;99.90;;;;;;5095913;28;20034;-75
2023/05/22 07:23:16;;;;;;;3.67;2.35;;;14.60;99.90;;;;;;5095823;28;20376;-75
2023/05/22 07:25:42;;;;;;;8.63;4.57;;;14.70;99.90;;;;;;5114205;28;20030;-74
2023/05/22 07:28:10;;;;;;;4.90;3.22;;;14.70;99.90;;;;;;5095664;28;20035;-74
2023/05/22 07:30:46;;;;;;;14.02;9.10;;;14.70;99.90;;;;;;5095634;28;20043;-70
2023/05/22 07:33:12;;;;;;;2.30;2.10;;;14.60;99.90;;;;;;5095894;28;20468;-70
2023/05/22 07:35:38;;;;;;;3.13;1.65;;;14.60;99.90;;;;;;5095659;28;20023;-69
2023/05/22 07:38:04;;;;;;;6.75;4.32;;;15.00;99.90;;;;;;5095620;28;20442;-70
2023/05/22 07:40:30;;;;;;;7.68;4.43;;;15.10;99.90;;;;;;5095323;28;20116;-70
2023/05/22 07:42:56;;;;;;;10.90;4.82;;;15.20;99.90;;;;;;5095160;28;20043;-70
2023/05/22 07:45:22;;;;;;;37.63;6.03;;;15.00;99.90;;;;;;5095310;28;20387;-75
2023/05/22 07:47:49;;;;;;;14.90;6.70;;;14.70;99.90;;;;;;5095658;28;20028;-74
2023/05/22 07:50:14;;;;;;;7.15;3.67;;;14.80;99.90;;;;;;5095010;28;20043;-75
2023/05/22 07:52:43;;;;;;;6.53;4.75;;;14.90;99.90;;;;;;5095505;28;20369;-74
2023/05/22 07:55:10;;;;;;;3.63;1.85;;;14.70;99.90;;;;;;5095011;28;20511;-75
2023/05/22 07:57:38;;;;;;;3.75;3.10;;;14.80;99.90;;;;;;5095355;28;20020;-75
2023/05/22 08:00:13;;;;;;;13.20;6.53;;;14.80;99.90;;;;;;5094868;28;20023;-73
2023/05/22 08:02:40;;;;;;;2.03;1.83;;;14.60;99.90;;;;;;5095667;28;20020;-75
2023/05/22 08:05:07;;;;;;;1.85;1.73;;;14.60;99.90;;;;;;5113495;28;20038;-74
2023/05/22 08:07:33;;;;;;;16.00;9.48;;;14.70;99.90;;;;;;5113195;28;20096;-74
2023/05/22 08:10:02;;;;;;;17.02;7.30;;;14.70;99.90;;;;;;5113196;28;20479;-75
2023/05/22 08:12:28;;;;;;;15.70;7.72;;;14.50;99.90;;;;;;5113155;28;20023;-73
2023/05/22 08:14:54;;;;;;;7.38;5.05;;;14.30;99.90;;;;;;5113287;28;20464;-73
2023/05/22 08:17:19;;;;;;;1.63;1.52;;;14.40;99.90;;;;;;5113366;28;20485;-75
2023/05/22 08:19:45;;;;;;;7.25;4.45;;;14.50;99.90;;;;;;5113390;28;20065;-74
2023/05/22 08:22:11;;;;;;;17.08;5.95;;;14.60;99.90;;;;;;5113208;28;20050;-75
2023/05/22 08:24:37;;;;;;;22.15;8.93;;;14.70;99.90;;;;;;5113249;28;20027;-70
2023/05/22 08:27:03;;;;;;;17.42;8.10;;;14.70;99.90;;;;;;5112730;28;20035;-70
2023/05/22 08:29:29;;;;;;;9.93;4.80;;;14.70;99.90;;;;;;5112897;28;20031;-70
2023/05/22 08:31:56;;;;;;;4.75;4.38;;;14.60;99.90;;;;;;5112963;28;20034;-70
2023/05/22 08:34:23;;;;;;;2.17;2.00;;;14.70;99.90;;;;;;5113212;28;20011;-69
2023/05/22 08:36:49;;;;;;;13.65;6.82;;;14.80;99.90;;;;;;5094395;28;20073;-71
2023/05/22 08:39:15;;;;;;;3.30;3.03;;;14.80;99.90;;;;;;5074544;28;20070;-70
2023/05/22 08:41:43;;;;;;;9.95;5.05;;;14.80;99.90;;;;;;5110319;28;20032;-70
2023/05/22 08:44:10;;;;;;;6.80;3.78;;;14.90;99.90;;;;;;5113112;28;20055;-70
2023/05/22 08:46:40;;;;;;;7.32;2.85;;;15.00;99.90;;;;;;5112876;28;20492;-69
2023/05/22 08:49:08;;;;;;;6.97;4.45;;;15.10;99.90;;;;;;5112939;28;20031;-70
2023/05/22 08:51:38;;;;;;;27.00;5.05;;;15.20;99.90;;;;;;5094306;28;20555;-70
2023/05/22 08:54:07;;;;;;;5.50;4.13;;;15.20;99.90;;;;;;5112946;28;20019;-69
2023/05/22 08:56:37;;;;;;;19.83;6.68;;;15.20;99.90;;;;;;5112492;28;20020;-71
2023/05/22 08:59:04;;;;;;;2.95;1.90;;;15.40;99.90;;;;;;5094801;28;20426;-70
2023/05/22 09:01:31;;;;;;;1.00;0.63;;;15.30;99.90;;;;;;5112839;28;20476;-71
2023/05/22 09:04:01;;;;;;;21.75;5.18;;;15.60;99.90;;;;;;5094540;28;20102;-70
2023/05/22 09:06:28;;;;;;;5.30;2.83;;;16.00;99.90;;;;;;5113091;28;20024;-71
2023/05/22 09:08:55;;;;;;;4.47;2.15;;;15.90;99.90;;;;;;5112824;28;20032;-70
2023/05/22 09:11:21;;;;;;;12.73;3.17;;;15.60;99.90;;;;;;5112425;28;20406;-69
2023/05/22 09:13:47;;;;;;;11.35;6.82;;;15.50;99.90;;;;;;5112658;28;20024;-70
2023/05/22 09:16:14;;;;;;;2.92;1.55;;;15.60;99.90;;;;;;5112670;28;20027;-69
2023/05/22 09:18:41;;;;;;;1.67;0.82;;;15.80;99.90;;;;;;5097400;28;20417;-69
2023/05/22 09:21:08;;;;;;;13.63;8.60;;;16.20;99.90;;;;;;5116145;28;20109;-69
2023/05/22 09:23:35;;;;;;;3.50;3.17;;;16.10;99.90;;;;;;5116285;28;20024;-70
2023/05/22 09:26:01;;;;;;;4.93;4.45;;;16.10;99.90;;;;;;5116116;28;20114;-70
2023/05/22 09:28:33;;;;;;;5.65;5.07;;;16.20;99.90;;;;;;5116243;28;20425;-70
2023/05/22 09:31:00;;;;;;;8.63;4.15;;;16.10;99.90;;;;;;5116276;28;20058;-69
2023/05/22 09:33:26;;;;;;;5.57;2.72;;;16.20;99.90;;;;;;5116287;28;20019;-69
2023/05/22 09:35:53;;;;;;;12.43;6.53;;;16.20;99.90;;;;;;5116307;28;20034;-70
2023/05/22 09:38:21;;;;;;;2.53;2.33;;;16.20;99.90;;;;;;5115970;28;20379;-69
2023/05/22 09:40:53;;;;;;;8.50;3.75;;;16.40;99.90;;;;;;5115729;28;20039;-70
2023/05/22 09:43:20;;;;;;;0.10;0.10;;;16.80;99.90;;;;;;5115781;28;20027;-70
2023/05/22 09:45:45;;;;;;;6.57;3.88;;;17.20;99.90;;;;;;5097920;28;20092;-70
2023/05/22 09:48:15;;;;;;;4.85;2.95;;;17.30;99.90;;;;;;5115927;28;20031;-70
2023/05/22 09:50:49;;;;;;;6.22;4.32;;;17.00;99.90;;;;;;5115907;28;20127;-70
2023/05/22 09:53:19;;;;;;;2.75;2.53;;;17.20;99.90;;;;;;5097375;28;20069;-70
2023/05/22 09:55:47;;;;;;;6.22;4.10;;;17.60;99.90;;;;;;5115435;28;20525;-70
2023/05/22 09:58:17;;;;;;;7.22;3.40;;;17.30;99.90;;;;;;5115747;28;20019;-70
2023/05/22 10:00:44;;;;;;;18.80;7.82;;;17.10;99.90;;;;;;5115954;28;20020;-70
2023/05/22 10:03:11;;;;;;;6.80;4.13;;;17.20;99.90;;;;;;5115551;28;20007;-69
2023/05/22 10:05:42;;;;;;;2.00;1.63;;;17.40;99.90;;;;;;5097501;28;20076;-69
2023/05/22 10:08:26;;;;;;;12.93;5.50;;;17.40;99.90;;;;;;5115446;28;20016;-69
2023/05/22 10:10:52;;;;;;;0.25;0.25;;;17.00;99.90;;;;;;5115552;28;20084;-70
2023/05/22 10:13:19;;;;;;;11.25;8.07;;;17.20;99.90;;;;;;5115402;28;20119;-73
2023/05/22 10:15:49;;;;;;;7.90;4.68;;;17.40;99.90;;;;;;5115499;28;20107;-70
2023/05/22 10:18:16;;;;;;;4.38;3.30;;;17.30;99.90;;;;;;5115402;28;20040;-70
2023/05/22 10:20:42;;;;;;;1.05;1.00;;;17.10;99.90;;;;;;5115504;28;20027;-70
2023/05/22 10:23:09;;;;;;;4.90;4.13;;;17.50;99.90;;;;;;5096668;28;20046;-70
2023/05/22 10:25:38;;;;;;;2.80;2.28;;;17.70;99.90;;;;;;5115223;28;20020;-69
2023/05/22 10:28:06;;;;;;;25.65;6.35;;;18.00;99.90;;;;;;5115035;28;20038;-71
2023/05/22 10:31:05;;;;;;;5.68;3.80;;;17.60;99.90;;;;;;5113996;28;20035;-69
2023/05/22 10:34:01;;;;;;;17.95;10.15;;;17.70;99.90;;;;;;5106378;28;20059;-73
2023/05/22 10:36:46;;;;;;;32.10;2.55;;;17.70;99.90;;;;;;5114737;28;20515;-74
2023/05/22 10:39:30;;;;;;;16.55;7.07;;;17.50;99.90;;;;;;5114634;28;20496;-70
2023/05/22 10:41:56;;;;;;;15.65;3.03;;;17.30;99.90;;;;;;5114702;28;20027;-70
2023/05/22 10:44:21;;;;;;;2.10;1.58;;;17.20;99.90;;;;;;5114683;28;20444;-73
2023/05/22 10:46:51;;;;;;;8.98;6.55;;;17.80;99.90;;;;;;5114510;28;20012;-70
2023/05/22 10:49:22;;;;;;;8.80;3.22;;;17.80;99.90;;;;;;5114595;28;20027;-70
2023/05/22 10:51:55;;;;;;;4.18;2.83;;;18.00;99.90;;;;;;5115271;28;20100;-70
2023/05/22 10:54:41;;;;;;;3.40;2.53;;;18.20;99.90;;;;;;5114539;28;20024;-70
2023/05/22 10:57:17;;;;;;;5.40;2.97;;;18.40;99.90;;;;;;5114572;28;20028;-70
2023/05/22 10:59:46;;;;;;;9.38;4.78;;;18.60;99.90;;;;;;5096210;28;20447;-70
2023/05/22 11:02:29;;;;;;;1.08;0.57;;;18.80;99.90;;;;;;5095999;28;20034;-71
2023/05/22 11:05:20;;;;;;;15.02;4.53;;;18.60;99.90;;;;;;5114346;28;20484;-69
2023/05/22 11:07:46;;;;;;;8.40;5.13;;;18.50;99.90;;;;;;5113911;28;20019;-70
2023/05/22 11:10:12;;;;;;;17.30;4.88;;;18.60;99.90;;;;;;5113786;28;20031;-70
2023/05/22 11:12:40;;;;;;;2.40;1.92;;;18.80;99.90;;;;;;5095645;28;20755;-70
2023/05/22 11:15:10;;;;;;;20.23;4.93;;;18.90;99.90;;;;;;5114005;28;20051;-70
2023/05/22 11:17:50;;;;;;;7.97;4.53;;;19.10;99.90;;;;;;5114067;28;20053;-70
2023/05/22 11:20:24;;;;;;;7.47;3.88;;;18.90;99.90;;;;;;5095739;28;20430;-70
2023/05/22 11:23:04;;;;;;;1.02;1.02;;;18.60;99.90;;;;;;5095529;28;20043;-69
2023/05/22 11:25:32;;;;;;;6.50;2.63;;;18.80;99.90;;;;;;5113912;28;20035;-70
2023/05/22 11:28:00;;;;;;;3.33;2.15;;;19.00;99.90;;;;;;5113974;28;20106;-70
2023/05/22 11:30:27;;;;;;;10.63;5.10;;;19.10;99.90;;;;;;5113626;28;20081;-70
2023/05/22 11:32:53;;;;;;;3.03;2.40;;;19.10;99.90;;;;;;5113838;28;20031;-69
2023/05/22 11:35:20;;;;;;;5.07;1.17;;;18.90;99.90;;;;;;5114269;28;20082;-69
2023/05/22 11:37:47;;;;;;;6.47;2.95;;;19.00;99.90;;;;;;5113777;28;20038;-69
2023/05/22 11:40:19;;;;;;;0.57;0.57;;;19.30;99.90;;;;;;5113166;28;20468;-70
2023/05/22 11:42:46;;;;;;;2.80;2.22;;;19.20;99.90;;;;;;5113975;28;20036;-69
2023/05/22 11:45:12;;;;;;;6.38;2.88;;;19.00;99.90;;;;;;5113669;28;20076;-69
2023/05/22 11:47:38;;;;;;;3.78;2.60;;;19.70;99.90;;;;;;5113854;28;20027;-70
2023/05/22 11:50:07;;;;;;;11.63;4.32;;;19.90;99.90;;;;;;5113078;28;20028;-70
2023/05/22 11:52:35;;;;;;;23.90;6.93;;;20.00;99.90;;;;;;5095497;28;20023;-69
2023/05/22 11:55:04;;;;;;;15.48;9.43;;;19.70;99.90;;;;;;5113672;28;20395;-69
2023/05/22 11:57:30;;;;;;;7.50;4.53;;;19.80;99.90;;;;;;5113396;28;20028;-70
2023/05/22 11:59:57;;;;;;;3.10;2.72;;;19.90;99.90;;;;;;5113586;28;20034;-69
2023/05/22 12:02:23;;;;;;;4.45;3.70;;;20.50;99.90;;;;;;5113258;28;20388;-70
2023/05/22 12:04:56;;;;;;;0.47;0.47;;;20.50;99.90;;;;;;5113345;28;20027;-69
2023/05/22 12:07:23;;;;;;;0.82;0.82;;;20.60;99.90;;;;;;5113342;28;20026;-69
2023/05/22 12:09:49;;;;;;;3.13;2.08;;;20.90;99.90;;;;;;5113536;28;20489;-70
2023/05/22 12:12:16;;;;;;;3.90;2.78;;;21.60;99.90;;;;;;5113113;28;20035;-69
2023/05/22 12:14:45;;;;;;;8.63;5.28;;;21.60;99.90;;;;;;5113354;28;20041;-69
2023/05/22 12:17:16;;;;;;;10.27;5.95;;;21.20;99.90;;;;;;5113298;28;20107;-69
2023/05/22 12:19:48;;;;;;;6.55;3.33;;;20.80;99.90;;;;;;5112841;28;20023;-70
2023/05/22 12:22:14;;;;;;;6.20;3.38;;;21.20;99.90;;;;;;5113591;28;20094;-70
2023/05/22 12:24:41;;;;;;;7.35;4.32;;;20.70;99.90;;;;;;5113150;28;20559;-70
2023/05/22 12:27:11;;;;;;;14.52;5.75;;;20.50;99.90;;;;;;5113095;28;20028;-69
2023/05/22 12:29:37;;;;;;;11.90;3.83;;;21.00;99.90;;;;;;5112954;28;20491;-69
2023/05/22 12:32:07;;;;;;;14.27;4.97;;;20.90;99.90;;;;;;5113048;28;20035;-70
2023/05/22 12:34:34;;;;;;;7.63;3.33;;;21.00;99.90;;;;;;5112777;28;20016;-70
2023/05/22 12:37:00;;;;;;;7.38;4.13;;;21.00;99.90;;;;;;5113060;28;20059;-69
2023/05/22 12:39:28;;;;;;;5.43;4.22;;;20.70;99.90;;;;;;5113056;28;20051;-69
2023/05/22 12:41:54;;;;;;;3.28;2.22;;;20.40;99.90;;;;;;5112789;28;20027;-70
2023/05/22 12:44:19;;;;;;;11.15;3.65;;;20.80;99.90;;;;;;5094971;28;20027;-70
2023/05/22 12:46:45;;;;;;;11.80;5.00;;;21.00;99.90;;;;;;5112873;28;20472;-70
2023/05/22 12:49:11;;;;;;;2.83;1.92;;;20.70;99.90;;;;;;5112865;28;20020;-70
2023/05/22 12:51:37;;;;;;;4.93;3.28;;;20.30;99.90;;;;;;5112643;28;20540;-69
2023/05/22 12:54:03;;;;;;;1.10;0.98;;;20.40;99.90;;;;;;5116861;28;20024;-70